Terminal Aerodrome Forecast
Issued by NWS

Home | Current Version | Previous Version | Text Only | Print | Product List | Glossary On
Versions: 1 2 3 4 5 6 7 8 9 10 11 12 13 14
000
FTUS44 KLIX 041123
TAFGPT
TAF
KGPT 041123Z 0412/0512 23004KT P6SM FEW022
     FM041300 22006KT P6SM SCT030 BKN250
     FM041900 22008KT P6SM VCTS SCT035CB BKN050
      TEMPO 0420/0423 VRB15G25KT 2SM TSRA BKN030CB
     FM050300 20004KT P6SM VCTS SCT020CB BKN080
      TEMPO 0504/0508 VRB15G25KT 2SM TSRA BKN020CB
     FM051000 13003KT P6SM SCT020 BKN120=

USA.gov is the U.S. government's official web portal to all federal, state and local government web resources and services.